createdAt,value
2019-05-15T00:00:20.552Z,92.80
2019-05-15T00:02:49.193Z,92.90
2019-05-15T00:05:18.838Z,92.90
2019-05-15T00:07:48.515Z,92.90
2019-05-15T00:10:18.122Z,92.70
2019-05-15T00:12:48.703Z,92.50
2019-05-15T00:15:18.202Z,92.40
2019-05-15T00:17:48.551Z,92.20
2019-05-15T00:20:20.050Z,92.20
2019-05-15T00:22:48.402Z,92.20
2019-05-15T00:25:18.866Z,92.20
2019-05-15T00:27:49.139Z,92.20
2019-05-15T00:30:18.432Z,92.20
2019-05-15T00:32:48.733Z,92.20
2019-05-15T00:35:18.422Z,92.20
2019-05-15T00:37:49.331Z,92.10
2019-05-15T00:40:18.480Z,92.00
2019-05-15T00:42:48.787Z,92.20
2019-05-15T00:45:19.161Z,92.00
2019-05-15T00:47:48.754Z,91.90
2019-05-15T00:50:18.701Z,91.90
2019-05-15T00:52:48.460Z,91.70
2019-05-15T00:55:19.147Z,91.70
2019-05-15T00:57:48.650Z,91.70
2019-05-15T01:00:38.153Z,91.70
2019-05-15T01:03:08.768Z,91.80
2019-05-15T01:05:38.772Z,91.80
2019-05-15T01:08:08.334Z,91.70
2019-05-15T01:10:38.588Z,91.60
2019-05-15T01:13:08.401Z,91.50
2019-05-15T01:15:38.663Z,91.50
2019-05-15T01:18:09.312Z,91.40
2019-05-15T01:20:39.099Z,91.30
2019-05-15T01:23:09.020Z,91.10
2019-05-15T01:25:38.912Z,91.00
2019-05-15T01:28:09.488Z,90.90
2019-05-15T01:30:39.363Z,90.70
2019-05-15T01:33:08.842Z,90.50
2019-05-15T01:35:38.279Z,90.50
2019-05-15T01:38:08.491Z,90.50
2019-05-15T01:40:38.495Z,90.30
2019-05-15T01:43:09.067Z,90.10
2019-05-15T01:45:39.339Z,90.00
2019-05-15T01:48:08.615Z,89.90
2019-05-15T01:50:38.818Z,89.70
2019-05-15T01:53:08.183Z,89.70
2019-05-15T01:55:39.493Z,89.80
2019-05-15T01:58:09.061Z,89.80
2019-05-15T02:00:39.169Z,89.70
2019-05-15T02:03:09.779Z,89.60
2019-05-15T02:05:39.436Z,89.00
2019-05-15T02:08:08.716Z,88.80
2019-05-15T02:10:39.296Z,88.60
2019-05-15T02:13:08.555Z,88.20
2019-05-15T02:15:39.426Z,88.10
2019-05-15T02:18:08.535Z,88.00
2019-05-15T02:20:38.851Z,87.90
2019-05-15T02:23:11.529Z,87.80
2019-05-15T02:25:38.815Z,87.50
2019-05-15T02:28:09.419Z,87.30
2019-05-15T02:30:40.546Z,86.60
2019-05-15T02:33:10.532Z,86.30
2019-05-15T02:35:39.537Z,86.10
2019-05-15T02:38:10.095Z,85.50
2019-05-15T02:40:40.554Z,85.60
2019-05-15T02:43:10.218Z,85.70
2019-05-15T02:45:41.985Z,85.40
2019-05-15T02:48:09.565Z,85.00
2019-05-15T02:50:39.186Z,84.80
2019-05-15T02:53:10.016Z,84.10
2019-05-15T02:55:40.310Z,83.90
2019-05-15T02:58:10.209Z,83.90
2019-05-15T03:00:47.505Z,83.80
2019-05-15T03:03:10.092Z,83.80
2019-05-15T03:05:40.621Z,83.60
2019-05-15T03:08:09.737Z,83.20
2019-05-15T03:10:40.616Z,83.20
2019-05-15T03:13:10.078Z,82.70
2019-05-15T03:15:40.488Z,82.40
2019-05-15T03:18:10.031Z,82.30
2019-05-15T03:20:39.403Z,81.80
2019-05-15T03:23:09.521Z,81.50
2019-05-15T03:25:40.468Z,81.40
2019-05-15T03:28:10.436Z,80.80
2019-05-15T03:31:06.721Z,80.80
2019-05-15T03:33:17.770Z,80.90
2019-05-15T03:35:43.227Z,80.80
2019-05-15T03:38:10.391Z,80.70
2019-05-15T03:40:39.840Z,80.40
2019-05-15T03:43:09.289Z,80.20
2019-05-15T03:45:40.460Z,80.20
2019-05-15T03:48:09.480Z,80.00
2019-05-15T03:50:40.525Z,80.00
2019-05-15T03:53:10.119Z,79.80
2019-05-15T03:55:40.656Z,79.70
2019-05-15T03:58:10.478Z,79.60
2019-05-15T04:00:40.121Z,79.20
2019-05-15T04:03:10.972Z,78.90
2019-05-15T04:05:39.885Z,78.70
2019-05-15T04:08:11.017Z,78.30
2019-05-15T04:10:40.088Z,77.80
2019-05-15T04:13:09.733Z,77.60
2019-05-15T04:15:39.706Z,77.10
2019-05-15T04:18:09.367Z,76.40
2019-05-15T04:20:40.548Z,76.40
2019-05-15T04:23:10.564Z,75.50
2019-05-15T04:25:40.474Z,75.00
2019-05-15T04:28:11.546Z,74.80
2019-05-15T04:30:40.299Z,74.40
2019-05-15T04:33:09.706Z,74.00
2019-05-15T04:35:39.982Z,73.20
2019-05-15T04:38:09.566Z,73.00
2019-05-15T04:40:39.635Z,72.90
2019-05-15T04:43:10.831Z,72.10
2019-05-15T04:45:40.043Z,72.20
2019-05-15T04:48:09.927Z,71.10
2019-05-15T04:50:39.929Z,71.50
2019-05-15T04:53:10.858Z,70.80
2019-05-15T04:55:40.758Z,70.50
2019-05-15T04:58:10.394Z,70.30
2019-05-15T05:00:54.079Z,70.00
2019-05-15T05:03:22.788Z,70.10
2019-05-15T05:05:51.833Z,70.30
2019-05-15T05:08:20.991Z,70.20
2019-05-15T05:10:52.032Z,69.80
2019-05-15T05:13:20.691Z,68.90
2019-05-15T05:15:50.353Z,68.60
2019-05-15T05:18:19.849Z,68.10
2019-05-15T05:20:48.852Z,67.80
2019-05-15T05:23:19.575Z,67.50
2019-05-15T05:25:49.368Z,67.50
2019-05-15T05:28:18.849Z,67.00
2019-05-15T05:30:48.519Z,66.80
2019-05-15T05:33:18.614Z,66.70
2019-05-15T05:35:48.538Z,66.40
2019-05-15T05:38:19.060Z,65.70
2019-05-15T05:40:50.157Z,65.80
2019-05-15T05:43:20.128Z,66.30
2019-05-15T05:45:49.466Z,66.30
2019-05-15T05:48:19.334Z,65.70
2019-05-15T05:50:49.730Z,65.00
2019-05-15T05:53:21.381Z,64.30
2019-05-15T05:55:53.177Z,64.00
2019-05-15T05:58:21.010Z,63.60
2019-05-15T06:00:50.628Z,62.40
2019-05-15T06:03:19.951Z,62.50
2019-05-15T06:05:49.715Z,62.50
2019-05-15T06:08:19.768Z,61.90
2019-05-15T06:10:49.642Z,62.50
2019-05-15T06:13:19.141Z,62.00
2019-05-15T06:15:48.838Z,62.00
2019-05-15T06:18:19.774Z,61.70
2019-05-15T06:20:49.333Z,61.00
2019-05-15T06:23:23.202Z,60.60
2019-05-15T06:25:49.552Z,60.50
2019-05-15T06:28:19.525Z,60.40
2019-05-15T06:30:48.946Z,59.70
2019-05-15T06:33:18.657Z,59.70
2019-05-15T06:35:48.854Z,59.30
2019-05-15T06:38:19.572Z,59.00
2019-05-15T06:40:50.444Z,58.90
2019-05-15T06:43:20.936Z,58.50
2019-05-15T06:45:49.673Z,58.30
2019-05-15T06:48:19.484Z,58.30
2019-05-15T06:50:49.160Z,58.20
2019-05-15T06:53:19.356Z,58.30
2019-05-15T06:55:49.123Z,58.00
2019-05-15T06:58:19.201Z,58.20
2019-05-15T07:00:48.970Z,58.40
2019-05-15T07:03:24.736Z,58.10
2019-05-15T07:05:50.739Z,58.40
2019-05-15T07:08:18.931Z,58.00
2019-05-15T07:10:48.585Z,58.10
2019-05-15T07:13:18.296Z,58.20
2019-05-15T07:15:49.508Z,58.50
2019-05-15T07:18:19.950Z,58.50
2019-05-15T07:20:49.115Z,58.50
2019-05-15T07:23:19.156Z,58.30
2019-05-15T07:25:49.738Z,57.60
2019-05-15T07:28:18.661Z,57.40
2019-05-15T07:30:49.460Z,57.40
2019-05-15T07:33:34.267Z,57.40
2019-05-15T07:35:49.894Z,57.20
2019-05-15T07:38:19.365Z,56.70
2019-05-15T07:40:55.703Z,56.00
2019-05-15T07:43:19.647Z,56.10
2019-05-15T07:45:54.349Z,56.40
2019-05-15T07:48:19.151Z,56.30
2019-05-15T07:50:49.639Z,55.70
2019-05-15T07:53:19.659Z,55.70
2019-05-15T07:55:50.303Z,55.30
2019-05-15T07:58:21.402Z,54.90
2019-05-15T08:00:49.510Z,54.70
2019-05-15T08:03:18.709Z,54.50
2019-05-15T08:05:58.837Z,54.30
2019-05-15T08:08:18.577Z,54.20
2019-05-15T08:10:48.995Z,53.80
2019-05-15T08:13:18.831Z,54.00
2019-05-15T08:15:48.624Z,53.70
2019-05-15T08:18:19.403Z,53.30
2019-05-15T08:20:49.199Z,53.10
2019-05-15T08:23:19.323Z,52.50
2019-05-15T08:25:48.861Z,52.20
2019-05-15T08:28:18.951Z,52.10
2019-05-15T08:30:49.683Z,51.30
2019-05-15T08:33:18.657Z,51.60
2019-05-15T08:35:51.329Z,51.80
2019-05-15T08:38:18.571Z,51.60
2019-05-15T08:40:49.068Z,51.30
2019-05-15T08:43:18.536Z,51.10
2019-05-15T08:45:49.634Z,51.20
2019-05-15T08:48:18.814Z,50.80
2019-05-15T08:50:48.717Z,50.50
2019-05-15T08:53:19.384Z,49.40
2019-05-15T08:55:49.347Z,49.40
2019-05-15T08:58:20.374Z,49.60
2019-05-15T09:00:52.448Z,49.40
2019-05-15T09:03:18.808Z,48.30
2019-05-15T09:05:48.400Z,48.70
2019-05-15T09:08:19.271Z,48.60
2019-05-15T09:10:50.324Z,48.40
2019-05-15T09:13:20.879Z,47.30
2019-05-15T09:15:49.872Z,44.80
2019-05-15T09:18:20.244Z,41.00
2019-05-15T09:20:49.520Z,37.10
2019-05-15T09:23:19.648Z,33.40
2019-05-15T09:25:49.672Z,30.90
2019-05-15T09:28:19.190Z,29.90
2019-05-15T09:30:49.069Z,28.00
2019-05-15T09:33:20.179Z,26.10
2019-05-15T09:35:49.043Z,26.10
2019-05-15T09:38:18.571Z,25.20
2019-05-15T09:40:50.292Z,24.00
2019-05-15T09:43:18.438Z,23.90
2019-05-15T09:45:49.400Z,22.10
2019-05-15T09:48:19.690Z,22.20
2019-05-15T09:50:49.468Z,21.00
2019-05-15T09:53:19.213Z,20.50
2019-05-15T09:55:49.617Z,19.30
2019-05-15T09:58:20.564Z,18.70
2019-05-15T10:00:52.036Z,18.20
2019-05-15T10:03:20.389Z,16.90
2019-05-15T10:05:49.311Z,17.20
2019-05-15T10:08:20.906Z,16.90
2019-05-15T10:10:48.871Z,17.30
2019-05-15T10:13:18.773Z,16.50
2019-05-15T10:15:50.902Z,16.50
2019-05-15T10:18:19.107Z,15.90
2019-05-15T10:20:48.715Z,15.20
2019-05-15T10:23:19.638Z,15.10
2019-05-15T10:25:48.549Z,14.80
2019-05-15T10:28:19.442Z,15.80
2019-05-15T10:30:49.725Z,15.90
2019-05-15T10:33:19.651Z,16.10
2019-05-15T10:35:49.487Z,15.30
2019-05-15T10:38:19.314Z,15.90
2019-05-15T10:41:00.236Z,15.50
2019-05-15T10:43:20.633Z,15.00
2019-05-15T10:45:50.330Z,14.90
2019-05-15T10:48:19.302Z,14.80
2019-05-15T10:50:48.339Z,15.10
2019-05-15T10:53:18.829Z,14.70
2019-05-15T10:55:49.501Z,14.40
2019-05-15T10:58:22.075Z,14.10
2019-05-15T11:00:49.583Z,14.60
2019-05-15T11:03:20.064Z,13.20
2019-05-15T11:05:49.440Z,13.80
2019-05-15T11:08:18.976Z,14.20
2019-05-15T11:10:49.368Z,13.80
2019-05-15T11:13:18.919Z,14.50
2019-05-15T11:15:49.235Z,15.90
2019-05-15T11:18:18.425Z,16.40
2019-05-15T11:20:48.675Z,16.10
2019-05-15T11:23:20.125Z,16.20
2019-05-15T11:25:48.751Z,15.80
2019-05-15T11:28:17.640Z,15.90
2019-05-15T11:30:49.025Z,15.50
2019-05-15T11:33:18.954Z,15.50
2019-05-15T11:35:57.893Z,15.10
2019-05-15T11:38:19.422Z,15.90
2019-05-15T11:40:47.953Z,15.50
2019-05-15T11:43:19.370Z,15.00
2019-05-15T11:45:48.194Z,16.00
2019-05-15T11:48:20.116Z,14.70
2019-05-15T11:50:47.627Z,15.60
2019-05-15T11:53:18.970Z,15.50
2019-05-15T11:55:48.112Z,15.60
2019-05-15T11:58:18.935Z,15.20
2019-05-15T12:00:49.084Z,16.00
2019-05-15T12:03:18.931Z,14.90
2019-05-15T12:05:49.156Z,15.30
2019-05-15T12:08:18.500Z,15.80
2019-05-15T12:10:47.751Z,15.90
2019-05-15T12:13:18.662Z,15.30
2019-05-15T12:15:48.461Z,14.80
2019-05-15T12:18:17.145Z,15.40
2019-05-15T12:20:48.333Z,15.80
2019-05-15T12:23:16.279Z,15.40
2019-05-15T12:25:44.972Z,15.60
2019-05-15T12:28:13.568Z,15.50
2019-05-15T12:30:42.478Z,15.00
2019-05-15T12:33:11.107Z,15.10
2019-05-15T12:35:40.317Z,15.50
2019-05-15T13:00:42.283Z,14.50
2019-05-15T13:03:11.031Z,14.20
2019-05-15T13:05:39.695Z,14.70
2019-05-15T13:08:08.668Z,15.60
2019-05-15T13:10:38.416Z,15.60
2019-05-15T13:13:09.667Z,15.00
2019-05-15T13:15:40.789Z,15.40
2019-05-15T13:18:13.889Z,15.50
2019-05-15T13:20:39.270Z,16.10
2019-05-15T13:23:10.627Z,15.60
2019-05-15T13:25:39.775Z,15.50
2019-05-15T13:28:09.066Z,15.90
2019-05-15T13:30:41.164Z,16.50
2019-05-15T13:33:09.943Z,16.30
2019-05-15T13:35:39.017Z,17.20
2019-05-15T13:38:09.884Z,16.20
2019-05-15T13:40:42.144Z,15.70
2019-05-15T13:43:09.011Z,15.10
2019-05-15T13:45:38.755Z,14.90
2019-05-15T13:48:08.825Z,15.40
2019-05-15T13:50:40.446Z,14.90
2019-05-15T13:53:10.970Z,15.40
2019-05-15T13:55:42.447Z,15.10
2019-05-15T13:58:09.353Z,14.50
2019-05-15T14:00:39.366Z,14.40
2019-05-15T14:03:09.355Z,14.50
2019-05-15T14:05:39.926Z,15.40
2019-05-15T14:08:08.566Z,15.30
2019-05-15T14:10:38.562Z,15.50
2019-05-15T14:13:07.507Z,15.00
2019-05-15T14:15:38.352Z,15.10
2019-05-15T14:18:08.582Z,15.30
2019-05-15T14:20:38.684Z,15.00
2019-05-15T14:23:08.677Z,15.40
2019-05-15T14:25:38.886Z,15.00
2019-05-15T14:28:08.960Z,15.00
2019-05-15T14:30:37.908Z,15.40
2019-05-15T14:33:08.790Z,16.10
2019-05-15T14:35:37.946Z,16.40
2019-05-15T14:38:10.082Z,16.60
2019-05-15T14:40:37.270Z,17.10
2019-05-15T14:43:08.588Z,16.40
2019-05-15T14:45:38.604Z,16.40
2019-05-15T14:48:08.786Z,16.90
2019-05-15T14:50:38.409Z,16.80
2019-05-15T14:53:09.558Z,16.70
2019-05-15T14:55:43.150Z,16.60
2019-05-15T14:58:08.530Z,16.80
2019-05-15T15:00:41.390Z,16.50
2019-05-15T15:03:09.679Z,15.90
2019-05-15T15:05:38.762Z,16.40
2019-05-15T15:08:18.468Z,16.60
2019-05-15T15:10:38.638Z,16.00
2019-05-15T15:13:09.299Z,17.10
2019-05-15T15:15:38.165Z,17.10
2019-05-15T15:18:08.323Z,17.50
2019-05-15T15:20:38.040Z,17.20
2019-05-15T15:23:08.532Z,16.70
2019-05-15T15:25:39.700Z,18.20
2019-05-15T15:28:08.458Z,18.20
2019-05-15T15:30:38.447Z,18.90
2019-05-15T15:33:08.481Z,19.40
2019-05-15T15:35:38.293Z,20.00
2019-05-15T15:38:13.177Z,20.00
2019-05-15T15:40:38.871Z,19.60
2019-05-15T15:43:09.143Z,19.90
2019-05-15T15:45:39.185Z,19.20
2019-05-15T15:48:08.598Z,19.60
2019-05-15T15:50:38.411Z,19.20
2019-05-15T15:53:08.968Z,19.20
2019-05-15T15:55:38.524Z,19.40
2019-05-15T15:58:08.706Z,19.50
2019-05-15T16:00:38.355Z,20.30
2019-05-15T16:03:08.440Z,20.70
2019-05-15T16:05:38.493Z,20.30
2019-05-15T16:08:08.501Z,20.40
2019-05-15T16:10:38.067Z,20.50
2019-05-15T16:13:11.438Z,20.70
2019-05-15T16:15:40.362Z,20.00
2019-05-15T16:18:13.786Z,20.50
2019-05-15T16:20:42.476Z,20.70
2019-05-15T16:23:11.207Z,20.40
2019-05-15T16:25:40.667Z,20.30
2019-05-15T16:28:09.311Z,20.70
2019-05-15T16:30:50.231Z,20.90
2019-05-15T16:33:09.529Z,21.20
2019-05-15T16:35:38.966Z,20.80
2019-05-15T16:38:09.261Z,21.30
2019-05-15T16:40:38.524Z,21.30
2019-05-15T16:43:07.612Z,22.20
2019-05-15T16:45:38.540Z,22.60
2019-05-15T16:48:09.277Z,23.10
2019-05-15T16:50:38.091Z,23.50
2019-05-15T16:53:09.204Z,22.90
2019-05-15T16:55:38.002Z,23.10
2019-05-15T16:58:09.187Z,23.30
2019-05-15T17:00:38.508Z,23.40
2019-05-15T17:03:13.833Z,23.60
2019-05-15T17:05:38.681Z,23.50
2019-05-15T17:08:09.051Z,23.80
2019-05-15T17:10:38.816Z,24.20
2019-05-15T17:13:08.775Z,24.50
2019-05-15T17:15:38.503Z,24.90
2019-05-15T17:18:08.918Z,25.00
2019-05-15T17:20:38.151Z,25.20
2019-05-15T17:23:08.612Z,25.20
2019-05-15T17:25:38.216Z,25.60
2019-05-15T17:28:09.089Z,26.00
2019-05-15T17:30:38.251Z,26.40
2019-05-15T17:33:07.341Z,26.60
2019-05-15T17:35:38.119Z,26.50
2019-05-15T17:38:06.737Z,26.90
2019-05-15T17:40:37.454Z,26.80
2019-05-15T17:43:05.865Z,27.50
2019-05-15T17:45:35.078Z,27.90
2019-05-15T17:48:03.890Z,28.40
2019-05-15T17:50:44.893Z,29.20
2019-05-15T17:53:03.193Z,30.10
2019-05-15T17:55:31.935Z,31.40
2019-05-15T17:58:01.412Z,32.30
2019-05-15T18:00:32.859Z,33.20
2019-05-15T18:03:01.591Z,34.20
2019-05-15T18:05:30.568Z,34.90
2019-05-15T18:07:59.325Z,35.30
2019-05-15T18:10:28.183Z,36.30
2019-05-15T18:12:58.428Z,36.40
2019-05-15T18:15:27.239Z,36.70
2019-05-15T18:17:58.579Z,37.30
2019-05-15T18:20:29.905Z,37.60
2019-05-15T18:22:59.326Z,38.00
2019-05-15T18:25:28.547Z,38.20
2019-05-15T18:27:59.218Z,38.10
2019-05-15T18:30:28.183Z,38.20
2019-05-15T18:32:58.857Z,38.20
2019-05-15T18:35:29.260Z,37.90
2019-05-15T18:37:59.069Z,38.10
2019-05-15T18:40:28.298Z,38.40
2019-05-15T18:42:59.187Z,38.30
2019-05-15T18:45:29.006Z,38.30
2019-05-15T18:47:58.750Z,38.40
2019-05-15T18:50:28.368Z,38.10
2019-05-15T18:52:58.565Z,38.30
2019-05-15T18:55:27.651Z,38.50
2019-05-15T18:57:58.436Z,38.50
2019-05-15T19:00:29.643Z,38.70
2019-05-15T19:02:59.540Z,38.80
2019-05-15T19:05:28.205Z,38.80
2019-05-15T19:07:57.926Z,38.50
2019-05-15T19:10:28.281Z,38.50
2019-05-15T19:12:59.069Z,38.60
2019-05-15T19:15:28.689Z,38.50
2019-05-15T19:17:58.589Z,38.40
2019-05-15T19:20:28.240Z,38.50
2019-05-15T19:22:58.961Z,38.40
2019-05-15T19:25:28.557Z,38.50
2019-05-15T19:27:57.955Z,38.60
2019-05-15T19:30:28.685Z,38.80
2019-05-15T19:32:58.494Z,39.10
2019-05-15T19:35:28.019Z,39.10
2019-05-15T19:37:58.637Z,39.00
2019-05-15T19:40:28.485Z,39.20
2019-05-15T19:42:59.116Z,39.10
2019-05-15T19:45:28.364Z,39.10
2019-05-15T19:47:58.745Z,39.20
2019-05-15T19:50:28.742Z,39.30
2019-05-15T19:52:59.050Z,39.40
2019-05-15T19:55:28.315Z,39.30
2019-05-15T19:57:58.814Z,39.60
2019-05-15T20:00:28.437Z,39.50
2019-05-15T20:02:58.117Z,40.20
2019-05-15T20:05:28.963Z,40.10
2019-05-15T20:07:58.764Z,40.50
2019-05-15T20:10:29.375Z,40.40
2019-05-15T20:13:00.219Z,40.50
2019-05-15T20:15:28.963Z,40.70
2019-05-15T20:17:58.689Z,40.60
2019-05-15T20:20:28.530Z,40.80
2019-05-15T20:23:00.077Z,41.10
2019-05-15T20:25:28.045Z,41.20
2019-05-15T20:27:56.788Z,41.40
2019-05-15T20:30:25.580Z,41.80
2019-05-15T20:32:54.462Z,42.00
2019-05-15T20:35:23.162Z,42.40
2019-05-15T20:37:52.239Z,42.30
2019-05-15T20:40:20.949Z,42.30
2019-05-15T20:42:49.587Z,42.50
2019-05-15T20:45:18.758Z,42.40
2019-05-15T20:47:47.545Z,42.60
2019-05-15T20:50:19.061Z,43.20
2019-05-15T20:52:48.779Z,43.50
2019-05-15T20:55:16.929Z,43.80
2019-05-15T20:57:49.769Z,44.30
2019-05-15T21:00:19.330Z,44.40
2019-05-15T21:02:48.623Z,44.40
2019-05-15T21:05:18.597Z,44.30
2019-05-15T21:07:48.517Z,44.40
2019-05-15T21:10:21.238Z,44.50
2019-05-15T21:12:48.860Z,44.70
2019-05-15T21:15:21.298Z,45.00
2019-05-15T21:17:57.866Z,45.20
2019-05-15T21:20:20.071Z,45.30
2019-05-15T21:22:49.240Z,45.60
2019-05-15T21:25:19.662Z,45.70
2019-05-15T21:27:48.935Z,46.10
2019-05-15T21:30:19.091Z,46.30
2019-05-15T21:32:49.247Z,46.50
2019-05-15T21:35:18.388Z,46.40
2019-05-15T21:37:48.879Z,46.70
2019-05-15T21:40:17.943Z,46.80
2019-05-15T21:42:49.289Z,47.10
2019-05-15T21:45:18.551Z,47.10
2019-05-15T21:47:47.346Z,47.60
2019-05-15T21:50:19.384Z,47.90
2019-05-15T21:52:49.513Z,48.00
2019-05-15T21:55:18.927Z,48.50
2019-05-15T21:57:48.174Z,48.40
2019-05-15T22:00:30.358Z,48.50
2019-05-15T22:02:59.046Z,48.70
2019-05-15T22:05:28.971Z,48.70
2019-05-15T22:07:58.734Z,48.80
2019-05-15T22:10:28.831Z,48.80
2019-05-15T22:12:59.078Z,49.10
2019-05-15T22:15:30.192Z,49.30
2019-05-15T22:17:58.966Z,49.60
2019-05-15T22:20:30.120Z,49.50
2019-05-15T22:22:59.556Z,49.70
2019-05-15T22:25:28.654Z,50.00
2019-05-15T22:27:58.024Z,50.00
2019-05-15T22:30:29.895Z,50.00
2019-05-15T22:32:58.718Z,50.20
2019-05-15T22:35:29.349Z,50.20
2019-05-15T22:37:58.643Z,50.20
2019-05-15T22:40:28.920Z,50.30
2019-05-15T22:42:59.135Z,50.40
2019-05-15T22:45:28.544Z,50.50
2019-05-15T22:47:58.665Z,50.70
2019-05-15T22:50:28.198Z,50.70
2019-05-15T22:52:58.736Z,50.90
2019-05-15T22:55:28.935Z,50.90
2019-05-15T22:57:58.616Z,51.30
2019-05-15T23:00:28.934Z,51.30
2019-05-15T23:02:58.165Z,51.30
2019-05-15T23:05:29.247Z,51.40
2019-05-15T23:07:59.026Z,51.50
2019-05-15T23:10:29.200Z,51.70
2019-05-15T23:12:58.449Z,51.60
2019-05-15T23:15:28.161Z,51.70
2019-05-15T23:17:58.382Z,51.90
2019-05-15T23:20:28.515Z,51.90
2019-05-15T23:22:58.411Z,51.90
2019-05-15T23:25:28.944Z,52.30
2019-05-15T23:27:58.281Z,52.20
2019-05-15T23:30:29.048Z,52.50
2019-05-15T23:32:58.417Z,52.40
2019-05-15T23:35:35.653Z,52.40
2019-05-15T23:37:58.167Z,52.30
2019-05-15T23:40:28.828Z,52.30
2019-05-15T23:42:58.152Z,52.30
2019-05-15T23:45:28.753Z,52.30
2019-05-15T23:47:58.015Z,52.50
2019-05-15T23:50:28.811Z,52.50
2019-05-15T23:52:58.424Z,52.60
2019-05-15T23:55:28.565Z,52.50
2019-05-15T23:57:58.447Z,52.40
